sensor_id;sensor_type;location;lat;lon;timestamp;pressure;altitude;pressure_sealevel;temperature;humidity
49611;BME280;35515;48.766;9.176;2023-05-16T00:01:19;98026.16;;;13.47;88.57
49611;BME280;35515;48.766;9.176;2023-05-16T00:03:46;98024.47;;;13.34;89.60
49611;BME280;35515;48.766;9.176;2023-05-16T00:06:12;98018.88;;;13.17;91.79
49611;BME280;35515;48.766;9.176;2023-05-16T00:08:41;98010.63;;;13.24;91.13
49611;BME280;35515;48.766;9.176;2023-05-16T00:11:07;98016.44;;;13.28;91.26
49611;BME280;35515;48.766;9.176;2023-05-16T00:13:34;98018.19;;;13.34;90.80
49611;BME280;35515;48.766;9.176;2023-05-16T00:16:00;98011.91;;;13.21;91.94
49611;BME280;35515;48.766;9.176;2023-05-16T00:18:29;98009.69;;;13.18;91.73
49611;BME280;35515;48.766;9.176;2023-05-16T00:20:55;98009.78;;;13.35;90.27
49611;BME280;35515;48.766;9.176;2023-05-16T00:23:22;98008.13;;;13.23;91.39
49611;BME280;35515;48.766;9.176;2023-05-16T00:25:51;98017.59;;;13.20;91.48
49611;BME280;35515;48.766;9.176;2023-05-16T00:28:17;98010.72;;;13.17;92.43
49611;BME280;35515;48.766;9.176;2023-05-16T00:30:44;98012.94;;;13.09;92.56
49611;BME280;35515;48.766;9.176;2023-05-16T00:33:10;98015.94;;;13.31;90.79
49611;BME280;35515;48.766;9.176;2023-05-16T00:35:37;98013.56;;;13.23;91.72
49611;BME280;35515;48.766;9.176;2023-05-16T00:38:03;98007.66;;;13.26;90.80
49611;BME280;35515;48.766;9.176;2023-05-16T00:40:30;98006.66;;;13.38;89.84
49611;BME280;35515;48.766;9.176;2023-05-16T00:42:58;98005.81;;;13.50;89.19
49611;BME280;35515;48.766;9.176;2023-05-16T00:45:25;98003.94;;;13.50;89.10
49611;BME280;35515;48.766;9.176;2023-05-16T00:47:51;98005.22;;;13.36;90.52
49611;BME280;35515;48.766;9.176;2023-05-16T00:50:18;98008.03;;;13.29;90.63
49611;BME280;35515;48.766;9.176;2023-05-16T00:52:45;98009.22;;;13.33;90.76
49611;BME280;35515;48.766;9.176;2023-05-16T00:55:12;98013.47;;;13.29;90.82
49611;BME280;35515;48.766;9.176;2023-05-16T00:57:39;98011.13;;;13.33;90.40
49611;BME280;35515;48.766;9.176;2023-05-16T01:00:08;98015.34;;;13.29;90.79
49611;BME280;35515;48.766;9.176;2023-05-16T01:02:35;98017.94;;;13.35;90.64
49611;BME280;35515;48.766;9.176;2023-05-16T01:05:02;98000.81;;;13.35;90.65
49611;BME280;35515;48.766;9.176;2023-05-16T01:07:29;98012.91;;;13.39;89.92
49611;BME280;35515;48.766;9.176;2023-05-16T01:09:56;98002.97;;;13.33;90.72
49611;BME280;35515;48.766;9.176;2023-05-16T01:12:28;98005.47;;;13.58;89.28
49611;BME280;35515;48.766;9.176;2023-05-16T01:15:03;98007.94;;;13.36;90.27
49611;BME280;35515;48.766;9.176;2023-05-16T01:17:47;98012.63;;;13.29;90.51
49611;BME280;35515;48.766;9.176;2023-05-16T01:20:21;98009.84;;;13.47;89.47
49611;BME280;35515;48.766;9.176;2023-05-16T01:23:03;98017.97;;;13.24;91.85
49611;BME280;35515;48.766;9.176;2023-05-16T01:25:55;98019.03;;;13.23;91.04
49611;BME280;35515;48.766;9.176;2023-05-16T01:28:24;98022.53;;;13.11;91.59
49611;BME280;35515;48.766;9.176;2023-05-16T01:30:51;98021.69;;;12.99;92.42
49611;BME280;35515;48.766;9.176;2023-05-16T01:33:18;98022.59;;;12.93;93.20
49611;BME280;35515;48.766;9.176;2023-05-16T01:35:52;98023.09;;;13.01;92.58
49611;BME280;35515;48.766;9.176;2023-05-16T01:38:24;98028.34;;;13.15;91.21
49611;BME280;35515;48.766;9.176;2023-05-16T01:40:54;98013.91;;;13.02;92.18
49611;BME280;35515;48.766;9.176;2023-05-16T01:43:33;98007.84;;;13.00;92.64
49611;BME280;35515;48.766;9.176;2023-05-16T01:46:03;98021.00;;;13.03;91.93
49611;BME280;35515;48.766;9.176;2023-05-16T01:48:38;98015.53;;;12.92;92.92
49611;BME280;35515;48.766;9.176;2023-05-16T01:51:05;98023.34;;;13.00;91.80
49611;BME280;35515;48.766;9.176;2023-05-16T01:53:36;98027.13;;;12.99;91.88
49611;BME280;35515;48.766;9.176;2023-05-16T01:56:03;98021.03;;;12.73;93.93
49611;BME280;35515;48.766;9.176;2023-05-16T01:58:36;98018.97;;;12.68;93.89
49611;BME280;35515;48.766;9.176;2023-05-16T02:01:04;98019.94;;;12.74;93.56
49611;BME280;35515;48.766;9.176;2023-05-16T02:03:31;98016.34;;;12.62;94.98
49611;BME280;35515;48.766;9.176;2023-05-16T02:05:58;98015.25;;;12.81;93.89
49611;BME280;35515;48.766;9.176;2023-05-16T02:08:25;98023.16;;;12.83;93.62
49611;BME280;35515;48.766;9.176;2023-05-16T02:10:53;98020.31;;;12.78;94.00
49611;BME280;35515;48.766;9.176;2023-05-16T02:13:19;98025.06;;;12.82;93.42
49611;BME280;35515;48.766;9.176;2023-05-16T02:15:47;98022.03;;;12.91;92.57
49611;BME280;35515;48.766;9.176;2023-05-16T02:18:14;98021.53;;;12.94;92.96
49611;BME280;35515;48.766;9.176;2023-05-16T02:20:41;98017.56;;;13.08;90.99
49611;BME280;35515;48.766;9.176;2023-05-16T02:23:08;98029.06;;;12.80;92.54
49611;BME280;35515;48.766;9.176;2023-05-16T02:25:34;98029.31;;;12.90;92.43
49611;BME280;35515;48.766;9.176;2023-05-16T02:28:01;98032.47;;;12.75;93.03
49611;BME280;35515;48.766;9.176;2023-05-16T02:30:27;98031.56;;;12.81;93.01
49611;BME280;35515;48.766;9.176;2023-05-16T02:32:55;98029.31;;;12.78;92.92
49611;BME280;35515;48.766;9.176;2023-05-16T02:35:22;98021.94;;;12.67;93.70
49611;BME280;35515;48.766;9.176;2023-05-16T02:37:48;98033.13;;;12.89;92.49
49611;BME280;35515;48.766;9.176;2023-05-16T02:40:15;98032.03;;;12.90;92.57
49611;BME280;35515;48.766;9.176;2023-05-16T02:42:42;98026.59;;;12.90;91.74
49611;BME280;35515;48.766;9.176;2023-05-16T02:45:09;98022.88;;;12.73;93.20
49611;BME280;35515;48.766;9.176;2023-05-16T02:47:36;98028.84;;;12.51;94.89
49611;BME280;35515;48.766;9.176;2023-05-16T02:50:05;98023.94;;;12.41;96.08
49611;BME280;35515;48.766;9.176;2023-05-16T02:52:31;98034.09;;;12.64;94.10
49611;BME280;35515;48.766;9.176;2023-05-16T02:54:58;98030.22;;;12.72;93.83
49611;BME280;35515;48.766;9.176;2023-05-16T02:57:25;98029.22;;;12.54;94.42
49611;BME280;35515;48.766;9.176;2023-05-16T02:59:51;98031.63;;;12.44;95.24
49611;BME280;35515;48.766;9.176;2023-05-16T03:02:18;98032.81;;;12.67;94.05
49611;BME280;35515;48.766;9.176;2023-05-16T03:04:44;98032.75;;;12.55;94.41
49611;BME280;35515;48.766;9.176;2023-05-16T03:07:12;98026.72;;;12.53;94.65
49611;BME280;35515;48.766;9.176;2023-05-16T03:09:39;98026.63;;;12.60;94.03
49611;BME280;35515;48.766;9.176;2023-05-16T03:12:06;98028.44;;;12.47;95.08
49611;BME280;35515;48.766;9.176;2023-05-16T03:14:33;98038.75;;;12.45;94.99
49611;BME280;35515;48.766;9.176;2023-05-16T03:17:00;98040.09;;;12.36;95.46
49611;BME280;35515;48.766;9.176;2023-05-16T03:19:26;98037.09;;;12.26;96.29
49611;BME280;35515;48.766;9.176;2023-05-16T03:21:53;98034.22;;;12.20;96.77
49611;BME280;35515;48.766;9.176;2023-05-16T03:24:21;98032.13;;;12.23;96.68
49611;BME280;35515;48.766;9.176;2023-05-16T03:26:47;98040.78;;;12.31;96.48
49611;BME280;35515;48.766;9.176;2023-05-16T03:29:14;98038.13;;;12.25;96.46
49611;BME280;35515;48.766;9.176;2023-05-16T03:31:40;98032.03;;;12.29;96.36
49611;BME280;35515;48.766;9.176;2023-05-16T03:34:07;98039.50;;;12.34;96.10
49611;BME280;35515;48.766;9.176;2023-05-16T03:36:34;98040.34;;;12.34;96.16
49611;BME280;35515;48.766;9.176;2023-05-16T03:39:00;98036.75;;;12.52;95.01
49611;BME280;35515;48.766;9.176;2023-05-16T03:41:28;98036.19;;;12.32;96.84
49611;BME280;35515;48.766;9.176;2023-05-16T03:43:55;98038.44;;;12.16;97.88
49611;BME280;35515;48.766;9.176;2023-05-16T03:46:21;98034.13;;;12.09;98.57
49611;BME280;35515;48.766;9.176;2023-05-16T03:48:48;98038.75;;;12.08;98.87
49611;BME280;35515;48.766;9.176;2023-05-16T03:51:14;98038.44;;;12.35;97.09
49611;BME280;35515;48.766;9.176;2023-05-16T03:53:41;98035.88;;;12.40;97.23
49611;BME280;35515;48.766;9.176;2023-05-16T03:56:07;98038.13;;;12.43;96.71
49611;BME280;35515;48.766;9.176;2023-05-16T03:58:35;98031.41;;;12.46;96.34
49611;BME280;35515;48.766;9.176;2023-05-16T04:01:02;98040.41;;;12.28;98.00
49611;BME280;35515;48.766;9.176;2023-05-16T04:03:29;98044.19;;;12.08;99.43
49611;BME280;35515;48.766;9.176;2023-05-16T04:05:59;98040.94;;;12.18;99.15
49611;BME280;35515;48.766;9.176;2023-05-16T04:08:26;98050.19;;;12.29;98.08
49611;BME280;35515;48.766;9.176;2023-05-16T04:10:52;98053.38;;;12.26;98.54
49611;BME280;35515;48.766;9.176;2023-05-16T04:13:20;98050.06;;;12.24;99.27
49611;BME280;35515;48.766;9.176;2023-05-16T04:15:48;98055.78;;;12.34;98.74
49611;BME280;35515;48.766;9.176;2023-05-16T04:18:14;98061.38;;;12.20;99.79
49611;BME280;35515;48.766;9.176;2023-05-16T04:20:41;98058.88;;;12.37;98.79
49611;BME280;35515;48.766;9.176;2023-05-16T04:23:08;98064.84;;;12.46;97.92
49611;BME280;35515;48.766;9.176;2023-05-16T04:25:36;98069.84;;;12.31;99.22
49611;BME280;35515;48.766;9.176;2023-05-16T04:28:03;98061.75;;;12.24;99.39
49611;BME280;35515;48.766;9.176;2023-05-16T04:30:30;98071.66;;;12.18;100.00
49611;BME280;35515;48.766;9.176;2023-05-16T04:32:57;98063.91;;;12.52;97.49
49611;BME280;35515;48.766;9.176;2023-05-16T04:35:25;98071.91;;;12.47;98.33
49611;BME280;35515;48.766;9.176;2023-05-16T04:37:52;98062.50;;;12.31;99.78
49611;BME280;35515;48.766;9.176;2023-05-16T04:40:18;98065.44;;;12.11;100.00
49611;BME280;35515;48.766;9.176;2023-05-16T04:42:45;98067.84;;;12.38;98.89
49611;BME280;35515;48.766;9.176;2023-05-16T04:45:12;98071.19;;;12.40;99.06
49611;BME280;35515;48.766;9.176;2023-05-16T04:47:38;98075.03;;;12.51;98.36
49611;BME280;35515;48.766;9.176;2023-05-16T04:50:08;98073.13;;;12.51;98.17
49611;BME280;35515;48.766;9.176;2023-05-16T04:52:35;98078.13;;;12.54;97.81
49611;BME280;35515;48.766;9.176;2023-05-16T04:55:02;98078.72;;;12.57;97.32
49611;BME280;35515;48.766;9.176;2023-05-16T04:57:29;98077.34;;;12.47;98.50
49611;BME280;35515;48.766;9.176;2023-05-16T04:59:56;98078.72;;;12.38;98.75
49611;BME280;35515;48.766;9.176;2023-05-16T05:02:22;98074.56;;;12.35;99.87
49611;BME280;35515;48.766;9.176;2023-05-16T05:04:49;98082.38;;;12.32;100.00
49611;BME280;35515;48.766;9.176;2023-05-16T05:07:17;98083.09;;;12.58;97.96
49611;BME280;35515;48.766;9.176;2023-05-16T05:09:43;98087.25;;;12.60;98.14
49611;BME280;35515;48.766;9.176;2023-05-16T05:12:10;98092.03;;;12.46;98.97
49611;BME280;35515;48.766;9.176;2023-05-16T05:14:37;98092.47;;;12.43;100.00
49611;BME280;35515;48.766;9.176;2023-05-16T05:17:04;98089.88;;;12.48;98.63
49611;BME280;35515;48.766;9.176;2023-05-16T05:19:30;98087.47;;;12.40;99.93
49611;BME280;35515;48.766;9.176;2023-05-16T05:21:57;98086.03;;;12.56;98.74
49611;BME280;35515;48.766;9.176;2023-05-16T05:24:25;98093.63;;;12.66;97.38
49611;BME280;35515;48.766;9.176;2023-05-16T05:26:52;98081.13;;;12.65;97.16
49611;BME280;35515;48.766;9.176;2023-05-16T05:29:18;98090.50;;;12.50;98.30
49611;BME280;35515;48.766;9.176;2023-05-16T05:31:45;98089.97;;;12.42;98.87
49611;BME280;35515;48.766;9.176;2023-05-16T05:34:11;98087.00;;;12.62;98.06
49611;BME280;35515;48.766;9.176;2023-05-16T05:36:38;98082.69;;;12.73;96.54
49611;BME280;35515;48.766;9.176;2023-05-16T05:39:05;98089.56;;;12.57;97.91
49611;BME280;35515;48.766;9.176;2023-05-16T05:41:32;98091.25;;;12.39;99.50
49611;BME280;35515;48.766;9.176;2023-05-16T05:43:59;98098.81;;;12.37;99.70
49611;BME280;35515;48.766;9.176;2023-05-16T05:46:26;98103.78;;;12.40;99.81
49611;BME280;35515;48.766;9.176;2023-05-16T05:48:52;98105.44;;;12.60;98.67
49611;BME280;35515;48.766;9.176;2023-05-16T05:51:19;98106.28;;;12.42;99.00
49611;BME280;35515;48.766;9.176;2023-05-16T05:53:46;98109.38;;;12.27;100.00
49611;BME280;35515;48.766;9.176;2023-05-16T05:56:12;98113.91;;;12.33;100.00
49611;BME280;35515;48.766;9.176;2023-05-16T05:58:40;98110.50;;;12.37;100.00
49611;BME280;35515;48.766;9.176;2023-05-16T06:01:07;98110.88;;;12.60;99.43
49611;BME280;35515;48.766;9.176;2023-05-16T06:03:33;98107.69;;;12.63;98.22
49611;BME280;35515;48.766;9.176;2023-05-16T06:06:00;98124.00;;;12.44;99.47
49611;BME280;35515;48.766;9.176;2023-05-16T06:08:26;98122.50;;;12.30;100.00
49611;BME280;35515;48.766;9.176;2023-05-16T06:10:53;98122.78;;;12.21;100.00
49611;BME280;35515;48.766;9.176;2023-05-16T06:13:19;98126.94;;;12.43;99.83
49611;BME280;35515;48.766;9.176;2023-05-16T06:15:50;98124.25;;;12.43;99.69
49611;BME280;35515;48.766;9.176;2023-05-16T06:18:17;98122.94;;;12.27;100.00
49611;BME280;35515;48.766;9.176;2023-05-16T06:20:43;98119.47;;;12.19;100.00
49611;BME280;35515;48.766;9.176;2023-05-16T06:23:10;98132.63;;;12.41;99.72
49611;BME280;35515;48.766;9.176;2023-05-16T06:25:37;98128.47;;;12.38;99.83
49611;BME280;35515;48.766;9.176;2023-05-16T06:28:04;98127.91;;;12.30;100.00
49611;BME280;35515;48.766;9.176;2023-05-16T06:30:30;98133.97;;;12.32;99.91
49611;BME280;35515;48.766;9.176;2023-05-16T06:32:58;98138.44;;;12.26;100.00
49611;BME280;35515;48.766;9.176;2023-05-16T06:35:25;98131.34;;;12.44;99.25
49611;BME280;35515;48.766;9.176;2023-05-16T06:37:51;98138.63;;;12.62;97.93
49611;BME280;35515;48.766;9.176;2023-05-16T06:40:18;98137.91;;;12.73;96.55
49611;BME280;35515;48.766;9.176;2023-05-16T06:42:44;98134.25;;;12.79;95.84
49611;BME280;35515;48.766;9.176;2023-05-16T06:45:11;98137.66;;;12.56;97.64
49611;BME280;35515;48.766;9.176;2023-05-16T06:47:37;98140.47;;;12.68;97.31
49611;BME280;35515;48.766;9.176;2023-05-16T06:50:07;98139.41;;;12.69;97.79
49611;BME280;35515;48.766;9.176;2023-05-16T06:52:34;98143.03;;;12.63;97.69
49611;BME280;35515;48.766;9.176;2023-05-16T06:55:00;98142.56;;;12.47;98.90
49611;BME280;35515;48.766;9.176;2023-05-16T06:57:27;98147.50;;;12.57;97.89
49611;BME280;35515;48.766;9.176;2023-05-16T06:59:54;98145.00;;;12.37;98.98
49611;BME280;35515;48.766;9.176;2023-05-16T07:02:20;98144.69;;;12.45;98.33
49611;BME280;35515;48.766;9.176;2023-05-16T07:04:47;98144.47;;;12.65;97.36
49611;BME280;35515;48.766;9.176;2023-05-16T07:07:15;98139.91;;;12.78;96.03
49611;BME280;35515;48.766;9.176;2023-05-16T07:09:41;98139.91;;;12.78;95.97
49611;BME280;35515;48.766;9.176;2023-05-16T07:12:08;98140.06;;;12.83;95.29
49611;BME280;35515;48.766;9.176;2023-05-16T07:14:35;98149.03;;;12.83;95.58
49611;BME280;35515;48.766;9.176;2023-05-16T07:17:01;98147.47;;;12.94;94.88
49611;BME280;35515;48.766;9.176;2023-05-16T07:19:28;98152.63;;;12.65;96.31
49611;BME280;35515;48.766;9.176;2023-05-16T07:21:55;98143.56;;;12.71;96.00
49611;BME280;35515;48.766;9.176;2023-05-16T07:24:23;98152.53;;;12.53;96.83
49611;BME280;35515;48.766;9.176;2023-05-16T07:26:49;98148.47;;;12.44;97.35
49611;BME280;35515;48.766;9.176;2023-05-16T07:29:16;98153.34;;;12.73;94.81
49611;BME280;35515;48.766;9.176;2023-05-16T07:31:42;98154.34;;;12.78;93.17
49611;BME280;35515;48.766;9.176;2023-05-16T07:34:09;98156.16;;;12.47;94.09
49611;BME280;35515;48.766;9.176;2023-05-16T07:36:36;98169.81;;;12.59;91.63
49611;BME280;35515;48.766;9.176;2023-05-16T07:39:03;98169.00;;;12.59;91.51
49611;BME280;35515;48.766;9.176;2023-05-16T07:41:30;98173.22;;;12.54;91.55
49611;BME280;35515;48.766;9.176;2023-05-16T07:43:57;98173.66;;;12.70;89.41
49611;BME280;35515;48.766;9.176;2023-05-16T07:46:23;98173.22;;;12.36;90.59
49611;BME280;35515;48.766;9.176;2023-05-16T07:48:50;98178.66;;;12.11;91.81
49611;BME280;35515;48.766;9.176;2023-05-16T07:51:17;98179.38;;;12.25;90.53
49611;BME280;35515;48.766;9.176;2023-05-16T07:53:43;98178.81;;;12.60;88.49
49611;BME280;35515;48.766;9.176;2023-05-16T07:56:10;98178.44;;;12.56;87.30
49611;BME280;35515;48.766;9.176;2023-05-16T07:58:40;98184.06;;;12.36;89.05
49611;BME280;35515;48.766;9.176;2023-05-16T08:01:06;98182.72;;;12.45;88.85
49611;BME280;35515;48.766;9.176;2023-05-16T08:03:34;98178.03;;;12.52;87.76
49611;BME280;35515;48.766;9.176;2023-05-16T08:06:00;98178.44;;;12.56;87.57
49611;BME280;35515;48.766;9.176;2023-05-16T08:08:27;98179.63;;;12.60;87.64
49611;BME280;35515;48.766;9.176;2023-05-16T08:10:53;98180.81;;;12.46;89.16
49611;BME280;35515;48.766;9.176;2023-05-16T08:13:20;98182.59;;;12.59;88.28
49611;BME280;35515;48.766;9.176;2023-05-16T08:15:48;98191.78;;;12.58;88.35
49611;BME280;35515;48.766;9.176;2023-05-16T08:18:14;98183.03;;;12.56;88.48
49611;BME280;35515;48.766;9.176;2023-05-16T08:20:41;98181.94;;;12.38;89.71
49611;BME280;35515;48.766;9.176;2023-05-16T08:23:08;98184.53;;;12.51;89.74
49611;BME280;35515;48.766;9.176;2023-05-16T08:25:34;98197.53;;;12.68;88.83
49611;BME280;35515;48.766;9.176;2023-05-16T08:28:01;98191.41;;;12.73;88.34
49611;BME280;35515;48.766;9.176;2023-05-16T08:30:27;98197.69;;;12.54;89.71
49611;BME280;35515;48.766;9.176;2023-05-16T08:32:55;98200.25;;;12.68;87.74
49611;BME280;35515;48.766;9.176;2023-05-16T08:35:22;98189.91;;;12.40;90.37
49611;BME280;35515;48.766;9.176;2023-05-16T08:37:49;98188.75;;;12.66;88.57
49611;BME280;35515;48.766;9.176;2023-05-16T08:40:15;98197.84;;;12.60;88.94
49611;BME280;35515;48.766;9.176;2023-05-16T08:42:42;98202.16;;;12.42;90.35
49611;BME280;35515;48.766;9.176;2023-05-16T08:45:09;98204.66;;;12.25;92.00
49611;BME280;35515;48.766;9.176;2023-05-16T08:47:38;98200.34;;;12.17;92.91
49611;BME280;35515;48.766;9.176;2023-05-16T08:50:08;98211.66;;;12.14;93.67
49611;BME280;35515;48.766;9.176;2023-05-16T08:52:37;98213.03;;;12.24;91.62
49611;BME280;35515;48.766;9.176;2023-05-16T08:55:05;98213.41;;;12.27;93.49
49611;BME280;35515;48.766;9.176;2023-05-16T08:57:34;98217.44;;;12.43;93.49
49611;BME280;35515;48.766;9.176;2023-05-16T09:00:01;98224.84;;;12.54;93.34
49611;BME280;35515;48.766;9.176;2023-05-16T09:02:36;98222.28;;;12.41;93.64
49611;BME280;35515;48.766;9.176;2023-05-16T09:05:03;98218.78;;;12.52;93.21
49611;BME280;35515;48.766;9.176;2023-05-16T09:07:31;98220.44;;;12.35;94.32
49611;BME280;35515;48.766;9.176;2023-05-16T09:09:58;98219.09;;;12.44;94.50
49611;BME280;35515;48.766;9.176;2023-05-16T09:12:24;98218.63;;;12.47;94.48
49611;BME280;35515;48.766;9.176;2023-05-16T09:14:51;98216.53;;;12.49;93.49
49611;BME280;35515;48.766;9.176;2023-05-16T09:17:18;98216.09;;;12.52;94.24
49611;BME280;35515;48.766;9.176;2023-05-16T09:19:45;98220.22;;;12.36;94.49
49611;BME280;35515;48.766;9.176;2023-05-16T09:22:13;98209.91;;;12.45;94.86
49611;BME280;35515;48.766;9.176;2023-05-16T09:24:43;98205.81;;;12.36;95.88
49611;BME280;35515;48.766;9.176;2023-05-16T09:27:12;98205.47;;;12.26;96.28
49611;BME280;35515;48.766;9.176;2023-05-16T09:29:39;98206.06;;;12.53;95.04
49611;BME280;35515;48.766;9.176;2023-05-16T09:32:11;98214.13;;;12.41;95.42
49611;BME280;35515;48.766;9.176;2023-05-16T09:34:38;98202.41;;;12.41;95.80
49611;BME280;35515;48.766;9.176;2023-05-16T09:37:08;98209.81;;;12.52;95.12
49611;BME280;35515;48.766;9.176;2023-05-16T09:39:35;98210.66;;;12.52;95.48
49611;BME280;35515;48.766;9.176;2023-05-16T09:42:03;98201.75;;;12.64;95.52
49611;BME280;35515;48.766;9.176;2023-05-16T09:44:30;98210.75;;;12.83;94.21
49611;BME280;35515;48.766;9.176;2023-05-16T09:46:57;98210.81;;;12.76;93.84
49611;BME280;35515;48.766;9.176;2023-05-16T09:49:25;98211.72;;;12.70;94.12
49611;BME280;35515;48.766;9.176;2023-05-16T09:51:51;98206.59;;;12.80;94.27
49611;BME280;35515;48.766;9.176;2023-05-16T09:54:28;98202.13;;;12.86;94.28
49611;BME280;35515;48.766;9.176;2023-05-16T09:56:55;98201.28;;;13.04;92.42
49611;BME280;35515;48.766;9.176;2023-05-16T09:59:23;98193.28;;;13.09;92.25
49611;BME280;35515;48.766;9.176;2023-05-16T10:01:51;98188.88;;;13.27;90.71
49611;BME280;35515;48.766;9.176;2023-05-16T10:04:18;98185.00;;;13.34;90.16
49611;BME280;35515;48.766;9.176;2023-05-16T10:06:45;98188.72;;;13.21;89.31
49611;BME280;35515;48.766;9.176;2023-05-16T10:09:13;98192.97;;;13.17;89.74
49611;BME280;35515;48.766;9.176;2023-05-16T10:11:41;98196.41;;;13.25;88.37
49611;BME280;35515;48.766;9.176;2023-05-16T10:14:10;98202.34;;;13.03;89.67
49611;BME280;35515;48.766;9.176;2023-05-16T10:16:42;98201.84;;;12.94;90.60
49611;BME280;35515;48.766;9.176;2023-05-16T10:19:10;98199.94;;;12.76;92.01
49611;BME280;35515;48.766;9.176;2023-05-16T10:21:37;98191.56;;;12.96;91.74
49611;BME280;35515;48.766;9.176;2023-05-16T10:24:10;98192.84;;;12.94;92.46
49611;BME280;35515;48.766;9.176;2023-05-16T10:26:38;98200.38;;;13.10;90.64
49611;BME280;35515;48.766;9.176;2023-05-16T10:29:04;98197.19;;;13.13;90.32
49611;BME280;35515;48.766;9.176;2023-05-16T10:31:31;98194.31;;;13.27;89.50
49611;BME280;35515;48.766;9.176;2023-05-16T10:33:59;98195.97;;;13.28;87.82
49611;BME280;35515;48.766;9.176;2023-05-16T10:36:26;98191.44;;;13.40;87.88
49611;BME280;35515;48.766;9.176;2023-05-16T10:38:53;98187.22;;;13.56;85.69
49611;BME280;35515;48.766;9.176;2023-05-16T10:41:20;98190.81;;;13.38;85.53
49611;BME280;35515;48.766;9.176;2023-05-16T10:43:55;98201.03;;;13.43;85.37
49611;BME280;35515;48.766;9.176;2023-05-16T10:46:22;98192.72;;;13.37;85.94
49611;BME280;35515;48.766;9.176;2023-05-16T10:48:49;98196.13;;;13.33;86.58
49611;BME280;35515;48.766;9.176;2023-05-16T10:51:35;98200.22;;;13.24;87.83
49611;BME280;35515;48.766;9.176;2023-05-16T10:54:07;98197.50;;;13.35;87.10
49611;BME280;35515;48.766;9.176;2023-05-16T10:56:35;98195.09;;;13.46;86.31
49611;BME280;35515;48.766;9.176;2023-05-16T10:59:02;98198.53;;;13.41;86.51
49611;BME280;35515;48.766;9.176;2023-05-16T11:01:30;98195.69;;;13.36;86.17
49611;BME280;35515;48.766;9.176;2023-05-16T11:04:02;98207.59;;;13.35;86.12
49611;BME280;35515;48.766;9.176;2023-05-16T11:06:30;98215.34;;;13.19;87.55
49611;BME280;35515;48.766;9.176;2023-05-16T11:09:05;98209.47;;;12.85;89.69
49611;BME280;35515;48.766;9.176;2023-05-16T11:11:38;98217.84;;;12.84;91.03
49611;BME280;35515;48.766;9.176;2023-05-16T11:14:05;98217.31;;;12.94;92.24
49611;BME280;35515;48.766;9.176;2023-05-16T11:16:33;98229.38;;;12.98;93.29
49611;BME280;35515;48.766;9.176;2023-05-16T11:19:03;98226.66;;;12.79;94.14
49611;BME280;35515;48.766;9.176;2023-05-16T11:22:04;98227.75;;;12.78;94.74
49611;BME280;35515;48.766;9.176;2023-05-16T11:24:33;98228.03;;;12.70;98.97
49611;BME280;35515;48.766;9.176;2023-05-16T11:27:01;98236.03;;;12.65;100.00
49611;BME280;35515;48.766;9.176;2023-05-16T11:29:30;98237.84;;;12.71;100.00
49611;BME280;35515;48.766;9.176;2023-05-16T11:31:57;98246.13;;;12.58;100.00
49611;BME280;35515;48.766;9.176;2023-05-16T11:34:24;98256.69;;;12.47;100.00
49611;BME280;35515;48.766;9.176;2023-05-16T11:36:50;98246.00;;;12.27;100.00
49611;BME280;35515;48.766;9.176;2023-05-16T11:39:17;98253.84;;;12.35;100.00
49611;BME280;35515;48.766;9.176;2023-05-16T11:41:45;98256.78;;;12.34;100.00
49611;BME280;35515;48.766;9.176;2023-05-16T11:44:12;98249.22;;;12.43;100.00
49611;BME280;35515;48.766;9.176;2023-05-16T11:46:39;98257.88;;;12.51;100.00
49611;BME280;35515;48.766;9.176;2023-05-16T11:49:06;98256.91;;;12.46;100.00
49611;BME280;35515;48.766;9.176;2023-05-16T11:51:34;98254.56;;;12.49;100.00
49611;BME280;35515;48.766;9.176;2023-05-16T11:54:03;98252.81;;;12.11;100.00
49611;BME280;35515;48.766;9.176;2023-05-16T11:56:30;98254.69;;;12.36;100.00
49611;BME280;35515;48.766;9.176;2023-05-16T11:58:58;98269.28;;;12.42;100.00
49611;BME280;35515;48.766;9.176;2023-05-16T12:01:30;98265.56;;;12.36;100.00
49611;BME280;35515;48.766;9.176;2023-05-16T12:03:57;98264.22;;;12.45;100.00
49611;BME280;35515;48.766;9.176;2023-05-16T12:06:23;98260.75;;;12.57;100.00
49611;BME280;35515;48.766;9.176;2023-05-16T12:08:50;98263.94;;;12.53;100.00
49611;BME280;35515;48.766;9.176;2023-05-16T12:13:43;98276.50;;;12.29;100.00
49611;BME280;35515;48.766;9.176;2023-05-16T12:16:11;98273.16;;;12.27;100.00
49611;BME280;35515;48.766;9.176;2023-05-16T12:18:38;98276.94;;;12.26;100.00
49611;BME280;35515;48.766;9.176;2023-05-16T12:21:05;98289.94;;;12.17;100.00
49611;BME280;35515;48.766;9.176;2023-05-16T12:23:32;98280.75;;;12.18;98.62
49611;BME280;35515;48.766;9.176;2023-05-16T12:25:59;98274.94;;;12.40;96.55
49611;BME280;35515;48.766;9.176;2023-05-16T12:28:30;98277.66;;;12.40;94.29
49611;BME280;35515;48.766;9.176;2023-05-16T12:30:57;98273.72;;;12.36;94.56
49611;BME280;35515;48.766;9.176;2023-05-16T12:33:26;98279.25;;;12.23;93.87
49611;BME280;35515;48.766;9.176;2023-05-16T12:35:53;98275.22;;;12.32;93.01
49611;BME280;35515;48.766;9.176;2023-05-16T12:38:20;98276.44;;;12.36;91.76
49611;BME280;35515;48.766;9.176;2023-05-16T12:40:56;98284.97;;;12.40;92.70
49611;BME280;35515;48.766;9.176;2023-05-16T12:43:23;98283.03;;;12.47;90.44
49611;BME280;35515;48.766;9.176;2023-05-16T12:45:50;98289.69;;;12.51;91.58
49611;BME280;35515;48.766;9.176;2023-05-16T12:48:17;98282.03;;;12.66;88.79
49611;BME280;35515;48.766;9.176;2023-05-16T12:50:46;98289.69;;;12.51;91.18
49611;BME280;35515;48.766;9.176;2023-05-16T12:53:13;98281.81;;;12.43;92.50
49611;BME280;35515;48.766;9.176;2023-05-16T12:55:40;98273.81;;;12.48;92.23
49611;BME280;35515;48.766;9.176;2023-05-16T12:58:08;98280.97;;;12.42;92.21
49611;BME280;35515;48.766;9.176;2023-05-16T13:00:34;98287.47;;;12.41;92.26
49611;BME280;35515;48.766;9.176;2023-05-16T13:03:02;98289.16;;;12.61;90.75
49611;BME280;35515;48.766;9.176;2023-05-16T13:05:28;98293.56;;;12.36;92.03